Time;durP1;ratioP1;P1;durP2;ratioP2;P2;SDS_P1;SDS_P2;PMS_P1;PMS_P2;Temp;Humidity;BMP_temperature;BMP_pressure;BME280_temperature;BME280_humidity;BME280_pressure;Samples;Min_cycle;Max_cycle;Signal;HPM_P1;HPM_P2
2023/01/07 00:01:24;;;;;;;3.22;1.20;;;;;;;;;;5027103;28;20119;-57
2023/01/07 00:03:50;;;;;;;3.17;1.30;;;;;;;;;;5031027;28;20638;-54
2023/01/07 00:06:17;;;;;;;3.15;1.20;;;;;;;;;;5028257;28;20052;-55
2023/01/07 00:08:42;;;;;;;;;;;;;;;;;;5031143;28;20036;-56
2023/01/07 00:11:08;;;;;;;3.60;1.20;;;;;;;;;;5029728;28;19913;-55
2023/01/07 00:13:34;;;;;;;3.17;1.13;;;;;;;;;;5022419;28;20030;-54
2023/01/07 00:16:04;;;;;;;3.33;1.17;;;;;;;;;;5023709;28;20036;-54
2023/01/07 00:18:29;;;;;;;3.30;1.30;;;;;;;;;;5029989;28;20041;-55
2023/01/07 00:20:57;;;;;;;3.60;1.38;;;;;;;;;;5029775;28;20060;-54
2023/01/07 00:23:23;;;;;;;3.53;1.30;;;;;;;;;;5029424;28;20125;-54
2023/01/07 00:25:49;;;;;;;4.78;1.27;;;;;;;;;;5030308;28;20017;-55
2023/01/07 00:28:14;;;;;;;4.10;1.30;;;;;;;;;;5030610;28;20025;-57
2023/01/07 00:30:39;;;;;;;4.18;1.40;;;;;;;;;;5030898;28;20013;-55
2023/01/07 00:33:05;;;;;;;3.83;1.20;;;;;;;;;;5029307;28;20029;-55
2023/01/07 00:35:35;;;;;;;4.15;1.30;;;;;;;;;;5030240;28;20548;-54
2023/01/07 00:38:01;;;;;;;3.25;1.13;;;;;;;;;;5030658;28;20030;-56
2023/01/07 00:40:26;;;;;;;3.50;1.40;;;;;;;;;;5030621;28;20424;-53
2023/01/07 00:42:55;;;;;;;3.03;1.08;;;;;;;;;;5030722;28;20075;-56
2023/01/07 00:45:21;;;;;;;3.65;1.58;;;;;;;;;;5030788;28;20390;-55
2023/01/07 00:47:46;;;;;;;3.50;1.20;;;;;;;;;;5029651;28;20029;-53
2023/01/07 00:50:11;;;;;;;3.10;1.20;;;;;;;;;;5025966;28;20112;-57
2023/01/07 00:52:36;;;;;;;2.75;1.05;;;;;;;;;;5028129;28;20104;-58
2023/01/07 00:55:02;;;;;;;3.58;1.33;;;;;;;;;;5029090;28;20022;-57
2023/01/07 00:57:27;;;;;;;3.80;1.30;;;;;;;;;;5029882;28;20017;-54
2023/01/07 00:59:52;;;;;;;3.03;1.03;;;;;;;;;;5019943;28;20709;-57
2023/01/07 01:02:17;;;;;;;4.50;1.20;;;;;;;;;;5024266;28;20033;-53
2023/01/07 01:04:42;;;;;;;3.08;1.00;;;;;;;;;;5021868;28;20019;-56
2023/01/07 01:07:08;;;;;;;2.83;1.02;;;;;;;;;;5024716;28;20425;-55
2023/01/07 01:09:33;;;;;;;4.18;1.00;;;;;;;;;;5029214;28;20033;-56
2023/01/07 01:11:58;;;;;;;2.60;1.00;;;;;;;;;;5029061;28;20053;-55
2023/01/07 01:14:23;;;;;;;4.30;1.13;;;;;;;;;;5029365;28;20032;-58
2023/01/07 01:16:48;;;;;;;3.55;1.05;;;;;;;;;;5028450;28;20018;-54
2023/01/07 01:19:13;;;;;;;2.58;0.90;;;;;;;;;;5028087;28;20026;-54
2023/01/07 01:21:39;;;;;;;3.65;1.10;;;;;;;;;;5024566;28;20360;-55
2023/01/07 01:24:05;;;;;;;3.45;1.27;;;;;;;;;;5023601;28;20041;-54
2023/01/07 01:26:30;;;;;;;2.53;1.00;;;;;;;;;;5024375;28;20025;-55
2023/01/07 01:28:55;;;;;;;3.40;1.30;;;;;;;;;;5029238;28;20025;-55
2023/01/07 01:31:20;;;;;;;2.60;1.10;;;;;;;;;;5028198;28;20542;-55
2023/01/07 01:33:45;;;;;;;3.58;1.10;;;;;;;;;;5028392;28;20029;-54
2023/01/07 01:36:11;;;;;;;3.38;1.40;;;;;;;;;;5020872;28;20021;-54
2023/01/07 01:38:37;;;;;;;3.75;1.30;;;;;;;;;;5029145;28;20470;-54
2023/01/07 01:41:02;;;;;;;3.50;1.23;;;;;;;;;;5027803;28;20013;-54
2023/01/07 01:43:28;;;;;;;4.13;1.45;;;;;;;;;;5027036;28;20154;-54
2023/01/07 01:45:54;;;;;;;3.67;1.20;;;;;;;;;;5027568;28;20021;-54
2023/01/07 01:48:19;;;;;;;3.35;1.20;;;;;;;;;;5029038;28;20037;-54
2023/01/07 01:50:45;;;;;;;3.33;1.20;;;;;;;;;;5028201;28;20116;-53
2023/01/07 01:53:13;;;;;;;3.13;1.23;;;;;;;;;;5019798;28;20036;-53
2023/01/07 01:55:40;;;;;;;3.53;1.30;;;;;;;;;;5028217;28;20427;-53
2023/01/07 01:58:08;;;;;;;3.13;1.10;;;;;;;;;;5028292;28;20026;-53
2023/01/07 02:00:34;;;;;;;3.42;1.10;;;;;;;;;;5024896;28;20021;-54
2023/01/07 02:03:00;;;;;;;3.03;1.02;;;;;;;;;;5026927;28;20125;-53
2023/01/07 02:05:28;;;;;;;3.03;1.02;;;;;;;;;;5028175;28;20021;-54
2023/01/07 02:07:53;;;;;;;3.28;1.02;;;;;;;;;;5028146;28;20377;-54
2023/01/07 02:10:20;;;;;;;2.42;0.98;;;;;;;;;;5026591;28;20564;-53
2023/01/07 02:13:04;;;;;;;2.80;1.10;;;;;;;;;;5031227;28;20029;-54
2023/01/07 02:15:50;;;;;;;3.13;1.10;;;;;;;;;;5037426;28;20470;-56
2023/01/07 02:18:31;;;;;;;2.60;1.00;;;;;;;;;;5026287;28;20026;-55
2023/01/07 02:21:25;;;;;;;2.30;0.90;;;;;;;;;;5020977;28;20029;-55
2023/01/07 02:24:09;;;;;;;2.75;1.10;;;;;;;;;;5007158;28;20037;-59
2023/01/07 02:26:34;;;;;;;3.53;1.20;;;;;;;;;;5027937;28;20029;-56
2023/01/07 02:29:11;;;;;;;3.58;1.00;;;;;;;;;;5030774;28;20013;-56
2023/01/07 02:31:55;;;;;;;2.17;0.73;;;;;;;;;;5025690;28;20384;-53
2023/01/07 02:34:32;;;;;;;2.97;1.00;;;;;;;;;;5030251;28;20029;-55
2023/01/07 02:37:27;;;;;;;2.03;0.80;;;;;;;;;;5029564;28;20070;-55
2023/01/07 02:39:59;;;;;;;2.22;0.70;;;;;;;;;;5009930;28;20061;-54
2023/01/07 02:42:32;;;;;;;1.85;0.70;;;;;;;;;;5030398;28;20045;-53
2023/01/07 02:44:57;;;;;;;;;;;;;;;;;;5027534;28;20025;-54
2023/01/07 02:47:42;;;;;;;2.22;0.80;;;;;;;;;;5030710;28;19992;-54
2023/01/07 02:50:08;;;;;;;1.98;0.80;;;;;;;;;;5027217;28;20067;-53
2023/01/07 02:52:33;;;;;;;2.33;0.70;;;;;;;;;;5031731;28;20489;-54
2023/01/07 02:55:04;;;;;;;3.88;0.80;;;;;;;;;;5029400;28;20029;-55
2023/01/07 02:57:39;;;;;;;2.08;0.70;;;;;;;;;;5030239;28;20096;-54
2023/01/07 03:00:24;;;;;;;2.20;0.70;;;;;;;;;;5033667;28;20059;-54
2023/01/07 03:03:02;;;;;;;3.15;0.80;;;;;;;;;;5028179;28;20068;-54
2023/01/07 03:05:46;;;;;;;1.80;0.70;;;;;;;;;;5029598;28;20026;-54
2023/01/07 03:08:22;;;;;;;2.95;0.85;;;;;;;;;;5030900;28;20039;-54
2023/01/07 03:10:53;;;;;;;2.25;0.75;;;;;;;;;;5022125;28;20530;-54
2023/01/07 03:13:28;;;;;;;2.17;0.73;;;;;;;;;;5020948;28;20060;-54
2023/01/07 03:15:59;;;;;;;2.10;0.80;;;;;;;;;;5028694;28;20025;-54
2023/01/07 03:18:33;;;;;;;2.30;0.90;;;;;;;;;;5030918;28;20035;-54
2023/01/07 03:21:00;;;;;;;1.98;0.70;;;;;;;;;;5023968;28;20028;-54
2023/01/07 03:23:27;;;;;;;1.77;0.70;;;;;;;;;;5029285;28;20037;-55
2023/01/07 03:25:52;;;;;;;;;;;;;;;;;;5028612;28;20022;-53
2023/01/07 03:28:19;;;;;;;1.58;0.60;;;;;;;;;;5027205;28;19913;-54
2023/01/07 03:30:45;;;;;;;1.90;0.75;;;;;;;;;;5022795;28;20029;-53
2023/01/07 03:33:12;;;;;;;1.67;0.70;;;;;;;;;;5029033;28;20042;-54
2023/01/07 03:35:37;;;;;;;;;;;;;;;;;;5024085;28;20029;-54
2023/01/07 03:38:03;;;;;;;1.73;0.65;;;;;;;;;;5023183;28;19995;-54
2023/01/07 03:40:28;;;;;;;2.45;0.70;;;;;;;;;;5027347;28;20029;-54
2023/01/07 03:42:53;;;;;;;1.58;0.70;;;;;;;;;;5029686;28;20025;-53
2023/01/07 03:45:21;;;;;;;1.55;0.60;;;;;;;;;;5027197;28;20390;-54
2023/01/07 03:47:47;;;;;;;1.80;0.60;;;;;;;;;;5026067;28;20067;-54
2023/01/07 03:50:12;;;;;;;1.27;0.55;;;;;;;;;;5027717;28;20026;-53
2023/01/07 03:52:38;;;;;;;2.45;0.57;;;;;;;;;;5030244;28;20025;-53
2023/01/07 03:55:03;;;;;;;2.37;0.60;;;;;;;;;;5030311;28;20017;-53
2023/01/07 03:57:29;;;;;;;1.65;0.63;;;;;;;;;;5029733;28;20109;-53
2023/01/07 03:59:54;;;;;;;1.73;0.60;;;;;;;;;;5027151;28;20044;-54
2023/01/07 04:02:19;;;;;;;2.45;0.60;;;;;;;;;;5027851;28;20509;-53
2023/01/07 04:04:44;;;;;;;1.75;0.63;;;;;;;;;;5029858;28;20105;-53
2023/01/07 04:07:09;;;;;;;1.17;0.50;;;;;;;;;;5030140;28;20017;-53
2023/01/07 04:09:35;;;;;;;2.20;0.75;;;;;;;;;;5029623;28;20387;-54
2023/01/07 04:12:00;;;;;;;1.77;0.52;;;;;;;;;;5030845;28;20021;-54
2023/01/07 04:14:25;;;;;;;2.30;0.60;;;;;;;;;;5027214;28;20080;-54
2023/01/07 04:16:50;;;;;;;1.07;0.50;;;;;;;;;;5024897;28;20407;-53
2023/01/07 04:19:16;;;;;;;1.67;0.60;;;;;;;;;;5027606;28;20033;-54
2023/01/07 04:21:41;;;;;;;1.33;0.50;;;;;;;;;;5030155;28;20025;-54
2023/01/07 04:24:06;;;;;;;2.63;0.60;;;;;;;;;;5029480;28;20056;-53
2023/01/07 04:26:32;;;;;;;1.73;0.53;;;;;;;;;;5027309;28;20040;-54
2023/01/07 04:28:57;;;;;;;1.35;0.57;;;;;;;;;;5025140;28;20460;-52
2023/01/07 04:31:22;;;;;;;1.67;0.60;;;;;;;;;;5029534;28;20021;-53
2023/01/07 04:33:48;;;;;;;1.65;0.60;;;;;;;;;;5025008;28;20025;-53
2023/01/07 04:36:13;;;;;;;1.05;0.50;;;;;;;;;;5032000;28;20028;-53
2023/01/07 04:38:38;;;;;;;1.50;0.53;;;;;;;;;;5033039;28;20613;-53
2023/01/07 04:41:03;;;;;;;1.57;0.50;;;;;;;;;;5030417;28;20021;-53
2023/01/07 04:43:28;;;;;;;1.45;0.70;;;;;;;;;;5022254;28;20122;-53
2023/01/07 04:45:53;;;;;;;1.70;0.60;;;;;;;;;;5028238;28;20061;-54
2023/01/07 04:48:19;;;;;;;1.42;0.50;;;;;;;;;;5021675;28;20036;-54
2023/01/07 04:50:45;;;;;;;1.73;0.60;;;;;;;;;;5027186;28;20060;-53
2023/01/07 04:53:10;;;;;;;1.73;0.60;;;;;;;;;;5027435;28;20025;-53
2023/01/07 04:55:35;;;;;;;1.37;0.60;;;;;;;;;;5024189;28;20021;-54
2023/01/07 04:58:00;;;;;;;2.23;0.77;;;;;;;;;;5026988;28;20045;-54
2023/01/07 05:00:25;;;;;;;1.70;0.60;;;;;;;;;;5028234;28;20029;-54
2023/01/07 05:02:51;;;;;;;2.03;0.70;;;;;;;;;;5029439;28;20390;-53
2023/01/07 05:05:16;;;;;;;1.95;0.70;;;;;;;;;;5028148;28;20030;-52
2023/01/07 05:07:41;;;;;;;2.00;0.70;;;;;;;;;;5018120;28;20072;-53
2023/01/07 05:10:06;;;;;;;1.83;0.70;;;;;;;;;;5027605;28;20029;-53
2023/01/07 05:12:32;;;;;;;1.65;0.60;;;;;;;;;;5024361;28;20034;-53
2023/01/07 05:14:57;;;;;;;2.58;0.80;;;;;;;;;;5023887;28;20025;-53
2023/01/07 05:17:23;;;;;;;2.92;0.80;;;;;;;;;;5021808;28;20022;-53
2023/01/07 05:19:48;;;;;;;3.33;0.80;;;;;;;;;;5023346;28;20021;-54
2023/01/07 05:22:13;;;;;;;2.80;0.80;;;;;;;;;;5025223;28;20398;-53
2023/01/07 05:24:38;;;;;;;2.30;0.82;;;;;;;;;;5020421;28;20064;-53
2023/01/07 05:27:03;;;;;;;3.47;0.90;;;;;;;;;;5027438;28;20029;-53
2023/01/07 05:29:28;;;;;;;2.70;0.80;;;;;;;;;;5028941;28;20041;-53
2023/01/07 05:31:53;;;;;;;2.00;0.73;;;;;;;;;;5028388;28;20437;-53
2023/01/07 05:34:19;;;;;;;1.88;0.60;;;;;;;;;;5028841;28;20037;-52
2023/01/07 05:36:44;;;;;;;2.03;0.70;;;;;;;;;;5028116;28;20029;-53
2023/01/07 05:39:09;;;;;;;2.45;0.73;;;;;;;;;;5026359;28;20513;-54
2023/01/07 05:41:34;;;;;;;2.00;0.70;;;;;;;;;;5025399;28;20025;-53
2023/01/07 05:43:59;;;;;;;1.67;0.70;;;;;;;;;;5026631;28;20040;-53
2023/01/07 05:46:24;;;;;;;2.03;0.60;;;;;;;;;;5030211;28;20039;-53
2023/01/07 05:48:49;;;;;;;3.90;0.70;;;;;;;;;;5031974;28;20553;-54
2023/01/07 05:51:15;;;;;;;1.73;0.60;;;;;;;;;;5031737;28;20532;-54
2023/01/07 05:53:40;;;;;;;1.67;0.52;;;;;;;;;;5024315;28;20029;-54
2023/01/07 05:56:05;;;;;;;1.33;0.60;;;;;;;;;;5023241;28;20112;-54
2023/01/07 05:58:30;;;;;;;2.17;0.63;;;;;;;;;;5031242;28;20051;-54
2023/01/07 06:00:55;;;;;;;1.23;0.50;;;;;;;;;;5029758;28;20040;-53
2023/01/07 06:03:21;;;;;;;1.53;0.60;;;;;;;;;;5030091;28;20128;-53
2023/01/07 06:05:47;;;;;;;3.13;1.13;;;;;;;;;;5024187;28;20105;-54
2023/01/07 06:08:12;;;;;;;3.53;1.33;;;;;;;;;;5020656;28;20018;-54
2023/01/07 06:10:37;;;;;;;4.65;1.50;;;;;;;;;;5024851;28;20017;-54
2023/01/07 06:13:02;;;;;;;3.00;0.90;;;;;;;;;;5031091;28;20029;-53
2023/01/07 06:15:28;;;;;;;1.67;0.60;;;;;;;;;;5031745;28;20551;-53
2023/01/07 06:17:53;;;;;;;2.20;0.60;;;;;;;;;;5031909;28;20021;-54
2023/01/07 06:20:18;;;;;;;2.10;0.70;;;;;;;;;;5032211;28;20028;-53
2023/01/07 06:22:43;;;;;;;2.05;0.70;;;;;;;;;;5029935;28;20025;-53
2023/01/07 06:25:09;;;;;;;3.30;1.10;;;;;;;;;;5027056;28;21349;-54
2023/01/07 06:27:34;;;;;;;5.13;1.50;;;;;;;;;;5025752;28;20026;-53
2023/01/07 06:29:59;;;;;;;4.27;1.60;;;;;;;;;;5028690;28;20779;-54
2023/01/07 06:32:25;;;;;;;4.57;1.85;;;;;;;;;;5027354;28;20040;-53
2023/01/07 06:34:50;;;;;;;4.88;1.83;;;;;;;;;;5031412;28;20445;-54
2023/01/07 06:37:16;;;;;;;4.20;1.70;;;;;;;;;;5030980;28;20033;-54
2023/01/07 06:39:41;;;;;;;5.00;1.60;;;;;;;;;;5031843;28;20017;-54
2023/01/07 06:42:07;;;;;;;5.45;1.83;;;;;;;;;;5031703;28;20018;-54
2023/01/07 06:44:32;;;;;;;4.38;1.50;;;;;;;;;;5028357;28;20057;-54
2023/01/07 06:46:57;;;;;;;4.45;1.77;;;;;;;;;;5028959;28;20056;-54
2023/01/07 06:49:22;;;;;;;3.92;1.73;;;;;;;;;;5028450;28;20026;-53
2023/01/07 06:51:47;;;;;;;4.32;1.77;;;;;;;;;;5028109;28;20013;-57
2023/01/07 06:54:12;;;;;;;4.43;1.60;;;;;;;;;;5028798;28;20107;-53
2023/01/07 06:56:37;;;;;;;5.70;1.90;;;;;;;;;;5027122;28;20374;-60
2023/01/07 06:59:02;;;;;;;6.13;2.22;;;;;;;;;;5029483;28;20445;-53
2023/01/07 07:01:28;;;;;;;5.32;2.17;;;;;;;;;;4994667;28;997947;-53
2023/01/07 07:03:53;;;;;;;6.65;2.22;;;;;;;;;;5032790;28;20025;-55
2023/01/07 07:06:18;;;;;;;5.60;1.70;;;;;;;;;;5023300;28;20026;-53
2023/01/07 07:08:43;;;;;;;5.72;1.98;;;;;;;;;;5032328;28;20017;-54
2023/01/07 07:11:08;;;;;;;5.78;1.90;;;;;;;;;;5031507;28;20017;-56
2023/01/07 07:13:33;;;;;;;5.23;1.90;;;;;;;;;;5031094;28;20036;-53
2023/01/07 07:15:59;;;;;;;5.35;1.70;;;;;;;;;;5022439;28;20021;-55
2023/01/07 07:18:25;;;;;;;4.17;1.70;;;;;;;;;;5027815;28;20033;-56
2023/01/07 07:20:50;;;;;;;4.93;2.20;;;;;;;;;;5024448;28;20407;-55
2023/01/07 07:23:16;;;;;;;4.75;1.70;;;;;;;;;;5026408;28;20071;-57
2023/01/07 07:25:41;;;;;;;4.57;2.00;;;;;;;;;;5031519;28;20562;-54
2023/01/07 07:28:06;;;;;;;6.73;2.17;;;;;;;;;;5030048;28;20052;-58
2023/01/07 07:30:31;;;;;;;4.72;2.05;;;;;;;;;;5031597;28;20475;-53
2023/01/07 07:33:00;;;;;;;5.05;1.60;;;;;;;;;;5029066;28;20034;-56
2023/01/07 07:35:25;;;;;;;4.13;1.60;;;;;;;;;;5027906;28;20432;-57
2023/01/07 07:37:50;;;;;;;5.65;1.85;;;;;;;;;;5028931;28;20029;-54
2023/01/07 07:40:15;;;;;;;4.28;1.80;;;;;;;;;;5027303;28;20039;-57
2023/01/07 07:42:40;;;;;;;4.88;2.03;;;;;;;;;;5028062;28;20040;-54
2023/01/07 07:45:06;;;;;;;5.37;1.80;;;;;;;;;;5027546;28;20021;-57
2023/01/07 07:47:31;;;;;;;4.85;2.00;;;;;;;;;;5028137;28;20071;-55
2023/01/07 07:49:56;;;;;;;5.63;2.10;;;;;;;;;;5030945;28;20068;-54
2023/01/07 07:52:22;;;;;;;5.70;1.60;;;;;;;;;;5025627;28;20037;-55
2023/01/07 07:54:47;;;;;;;4.30;1.60;;;;;;;;;;5024956;28;20505;-55
2023/01/07 07:57:12;;;;;;;5.60;1.77;;;;;;;;;;5023105;28;20037;-55
2023/01/07 07:59:37;;;;;;;4.32;1.58;;;;;;;;;;5027541;28;20017;-62
2023/01/07 08:02:02;;;;;;;5.15;1.95;;;;;;;;;;5028416;28;20033;-53
2023/01/07 08:04:27;;;;;;;4.28;1.63;;;;;;;;;;5029343;28;20111;-55
2023/01/07 08:06:53;;;;;;;3.97;1.70;;;;;;;;;;5028252;28;20393;-53
2023/01/07 08:09:18;;;;;;;4.90;1.73;;;;;;;;;;5025841;28;20044;-54
2023/01/07 08:11:43;;;;;;;4.30;1.63;;;;;;;;;;5030198;28;20021;-54
2023/01/07 08:14:08;;;;;;;5.03;1.88;;;;;;;;;;5035346;28;20399;-53
2023/01/07 08:16:34;;;;;;;4.80;1.90;;;;;;;;;;5034905;28;20475;-54
2023/01/07 08:18:59;;;;;;;5.40;1.87;;;;;;;;;;5033844;28;20109;-55
2023/01/07 08:21:24;;;;;;;4.90;2.05;;;;;;;;;;5025333;28;20017;-53
2023/01/07 08:23:49;;;;;;;6.57;2.80;;;;;;;;;;5027080;28;20461;-55
2023/01/07 08:26:14;;;;;;;7.55;2.60;;;;;;;;;;5026750;28;20045;-55
2023/01/07 08:28:39;;;;;;;7.10;2.60;;;;;;;;;;5029016;28;20474;-54
2023/01/07 08:31:05;;;;;;;6.70;2.65;;;;;;;;;;5031246;28;20009;-54
2023/01/07 08:33:36;;;;;;;5.88;2.60;;;;;;;;;;5026328;28;20030;-54
2023/01/07 08:36:01;;;;;;;7.90;3.10;;;;;;;;;;5029966;28;20031;-54
2023/01/07 08:38:30;;;;;;;5.97;2.63;;;;;;;;;;5030000;28;20104;-56
2023/01/07 08:40:55;;;;;;;6.78;3.20;;;;;;;;;;5037752;28;20025;-54
2023/01/07 08:43:22;;;;;;;6.05;2.67;;;;;;;;;;5037505;28;20478;-57
2023/01/07 08:45:48;;;;;;;6.88;3.05;;;;;;;;;;5049902;28;20025;-56
2023/01/07 08:48:13;;;;;;;6.90;3.13;;;;;;;;;;5035542;28;20112;-55
2023/01/07 08:50:38;;;;;;;7.20;2.95;;;;;;;;;;5030028;28;20033;-53
2023/01/07 08:53:03;;;;;;;6.45;3.00;;;;;;;;;;5021989;28;20493;-55
2023/01/07 08:55:28;;;;;;;8.50;3.37;;;;;;;;;;5030430;28;20104;-55
2023/01/07 08:57:53;;;;;;;8.15;3.60;;;;;;;;;;5043334;28;20029;-56
2023/01/07 09:00:19;;;;;;;6.73;3.83;;;;;;;;;;5027796;28;20402;-55
2023/01/07 09:02:44;;;;;;;7.75;3.72;;;;;;;;;;5027270;28;20044;-55
2023/01/07 09:05:10;;;;;;;7.65;3.60;;;;;;;;;;5026636;28;20014;-55
2023/01/07 09:07:35;;;;;;;7.63;3.40;;;;;;;;;;5029244;28;20025;-54
2023/01/07 09:10:00;;;;;;;6.95;3.25;;;;;;;;;;5040623;28;20020;-55
2023/01/07 09:12:25;;;;;;;7.63;3.57;;;;;;;;;;5040418;28;20032;-57
2023/01/07 09:14:51;;;;;;;8.73;3.97;;;;;;;;;;5034618;28;20025;-55
2023/01/07 09:17:16;;;;;;;7.45;3.75;;;;;;;;;;5037796;28;20013;-54
2023/01/07 09:19:41;;;;;;;9.70;3.80;;;;;;;;;;5029130;28;20398;-56
2023/01/07 09:22:06;;;;;;;7.88;3.78;;;;;;;;;;5029722;28;20057;-52
2023/01/07 09:24:31;;;;;;;7.90;3.75;;;;;;;;;;5031704;28;20127;-55
2023/01/07 09:26:57;;;;;;;7.28;3.13;;;;;;;;;;5032879;28;20017;-55
2023/01/07 09:29:22;;;;;;;9.32;3.80;;;;;;;;;;5034200;28;20065;-54
2023/01/07 09:31:47;;;;;;;8.45;3.83;;;;;;;;;;5039461;28;20056;-54
2023/01/07 09:34:12;;;;;;;7.53;4.00;;;;;;;;;;5033842;28;20386;-56
2023/01/07 09:36:37;;;;;;;8.15;3.75;;;;;;;;;;5034167;28;20442;-59
2023/01/07 09:39:03;;;;;;;7.85;3.80;;;;;;;;;;5033921;28;20096;-54
2023/01/07 09:41:34;;;;;;;8.45;3.60;;;;;;;;;;5033651;28;20048;-55
2023/01/07 09:44:06;;;;;;;9.15;4.18;;;;;;;;;;5032768;28;20398;-56
2023/01/07 09:46:31;;;;;;;6.95;3.78;;;;;;;;;;5023770;28;20523;-54
2023/01/07 09:48:58;;;;;;;8.70;3.92;;;;;;;;;;5033467;28;20112;-55
2023/01/07 09:51:26;;;;;;;10.73;4.32;;;;;;;;;;5033753;28;20701;-54
2023/01/07 09:53:52;;;;;;;8.82;4.25;;;;;;;;;;5033091;28;20094;-54
2023/01/07 09:56:26;;;;;;;9.20;4.13;;;;;;;;;;5033080;28;20026;-54
2023/01/07 09:58:52;;;;;;;8.90;4.05;;;;;;;;;;5032418;28;20029;-55
2023/01/07 10:01:20;;;;;;;10.13;4.55;;;;;;;;;;5041502;28;20108;-55
2023/01/07 10:04:04;;;;;;;8.80;4.15;;;;;;;;;;5033278;28;20026;-55
2023/01/07 10:06:37;;;;;;;7.72;3.83;;;;;;;;;;5033147;28;20437;-55
2023/01/07 10:09:10;;;;;;;8.77;4.00;;;;;;;;;;5033528;28;20017;-55
2023/01/07 10:11:54;;;;;;;9.75;4.07;;;;;;;;;;5029067;28;20048;-54
2023/01/07 10:14:37;;;;;;;8.55;4.13;;;;;;;;;;5029892;28;20044;-55
2023/01/07 10:17:20;;;;;;;8.85;4.50;;;;;;;;;;5029128;28;20021;-55
2023/01/07 10:20:02;;;;;;;8.80;4.43;;;;;;;;;;5027270;28;20020;-54
2023/01/07 10:22:34;;;;;;;9.13;4.15;;;;;;;;;;5033384;28;20028;-54
2023/01/07 10:25:02;;;;;;;8.63;4.22;;;;;;;;;;5032922;28;20026;-55
2023/01/07 10:27:31;;;;;;;8.35;4.32;;;;;;;;;;5033286;28;20021;-55
2023/01/07 10:29:59;;;;;;;8.93;3.80;;;;;;;;;;5031818;28;20112;-54
2023/01/07 10:32:28;;;;;;;7.30;3.90;;;;;;;;;;5040793;28;20590;-54
2023/01/07 10:34:55;;;;;;;7.63;4.10;;;;;;;;;;5032808;28;20051;-56
2023/01/07 10:37:24;;;;;;;7.10;3.72;;;;;;;;;;5031768;28;20076;-56
2023/01/07 10:39:53;;;;;;;7.47;3.95;;;;;;;;;;5033142;28;20422;-55
2023/01/07 10:42:18;;;;;;;7.82;4.05;;;;;;;;;;5032734;28;20075;-57
2023/01/07 10:44:43;;;;;;;8.30;4.07;;;;;;;;;;5032486;28;20025;-55
2023/01/07 10:47:14;;;;;;;8.27;3.92;;;;;;;;;;5031412;28;20052;-56
2023/01/07 10:49:53;;;;;;;8.13;3.40;;;;;;;;;;5040839;28;20037;-58
2023/01/07 10:52:25;;;;;;;7.82;3.97;;;;;;;;;;5032959;28;20032;-56
2023/01/07 10:55:01;;;;;;;7.18;3.95;;;;;;;;;;5032726;28;20030;-57
2023/01/07 10:57:28;;;;;;;6.65;3.60;;;;;;;;;;5032875;28;20467;-56
2023/01/07 10:59:55;;;;;;;8.52;3.72;;;;;;;;;;5032230;28;20096;-57
2023/01/07 11:02:21;;;;;;;9.13;3.75;;;;;;;;;;5033764;28;20369;-55
2023/01/07 11:04:46;;;;;;;7.68;3.38;;;;;;;;;;5038550;28;20486;-55
2023/01/07 11:07:17;;;;;;;6.60;3.03;;;;;;;;;;5032294;28;20028;-57
2023/01/07 11:09:43;;;;;;;6.88;3.08;;;;;;;;;;5032460;28;20025;-55
2023/01/07 11:12:20;;;;;;;6.50;3.17;;;;;;;;;;5032266;28;20064;-57
2023/01/07 11:14:46;;;;;;;6.05;3.00;;;;;;;;;;5032009;28;20030;-56
2023/01/07 11:17:11;;;;;;;8.25;3.22;;;;;;;;;;5032365;28;20022;-55
2023/01/07 11:19:44;;;;;;;6.38;3.05;;;;;;;;;;5036121;28;20025;-54
2023/01/07 11:22:25;;;;;;;7.78;2.90;;;;;;;;;;5034925;28;20044;-55
2023/01/07 11:24:50;;;;;;;6.45;2.88;;;;;;;;;;5028176;28;20144;-56
2023/01/07 11:27:16;;;;;;;7.10;2.80;;;;;;;;;;5041752;28;20009;-55
2023/01/07 11:30:00;;;;;;;5.22;2.40;;;;;;;;;;5051867;28;20108;-55
2023/01/07 11:32:27;;;;;;;5.47;2.47;;;;;;;;;;5052047;28;20037;-55
2023/01/07 11:34:55;;;;;;;8.23;3.25;;;;;;;;;;5051784;28;20017;-55
2023/01/07 11:37:40;;;;;;;5.38;2.53;;;;;;;;;;5051433;28;20031;-56
2023/01/07 11:40:11;;;;;;;6.38;2.90;;;;;;;;;;5036604;28;20033;-57
2023/01/07 11:42:46;;;;;;;6.93;3.30;;;;;;;;;;5031300;28;20029;-55
2023/01/07 11:45:14;;;;;;;7.35;3.30;;;;;;;;;;5031807;28;20075;-55
2023/01/07 11:47:45;;;;;;;6.53;3.00;;;;;;;;;;5027576;28;20025;-55
2023/01/07 11:50:24;;;;;;;6.25;2.95;;;;;;;;;;5031028;28;20025;-57
2023/01/07 11:53:24;;;;;;;6.97;3.30;;;;;;;;;;5046052;28;20031;-55
2023/01/07 11:56:08;;;;;;;7.97;3.58;;;;;;;;;;4989081;28;20407;-57
2023/01/07 11:58:36;;;;;;;7.60;3.03;;;;;;;;;;5045814;28;20025;-54
2023/01/07 12:01:01;;;;;;;6.32;2.90;;;;;;;;;;5046834;28;20022;-55
2023/01/07 12:03:26;;;;;;;7.00;3.00;;;;;;;;;;5039003;28;20079;-55
2023/01/07 12:05:54;;;;;;;6.80;3.20;;;;;;;;;;5030164;28;20049;-56
2023/01/07 12:08:20;;;;;;;7.70;3.63;;;;;;;;;;5039199;28;20048;-54
2023/01/07 12:10:45;;;;;;;8.85;3.45;;;;;;;;;;5030879;28;20143;-56
2023/01/07 12:13:22;;;;;;;7.43;3.15;;;;;;;;;;5031198;28;20036;-55
2023/01/07 12:16:06;;;;;;;7.63;3.45;;;;;;;;;;5029121;28;20028;-55
2023/01/07 12:18:32;;;;;;;;;;;;;;;;;;5023866;28;20044;-54
2023/01/07 12:21:10;;;;;;;9.02;3.50;;;;;;;;;;5030765;28;20433;-56
2023/01/07 12:23:38;;;;;;;7.63;3.20;;;;;;;;;;5030919;28;20037;-55
2023/01/07 12:26:11;;;;;;;6.82;3.13;;;;;;;;;;5030339;28;20116;-55
2023/01/07 12:28:36;;;;;;;7.47;3.22;;;;;;;;;;5030860;28;20462;-55
2023/01/07 12:31:16;;;;;;;6.22;2.88;;;;;;;;;;5030729;28;20021;-55
2023/01/07 12:33:51;;;;;;;6.00;3.22;;;;;;;;;;5028213;28;20379;-55
2023/01/07 12:36:19;;;;;;;6.00;2.70;;;;;;;;;;5030590;28;20028;-54
2023/01/07 12:38:51;;;;;;;7.57;3.08;;;;;;;;;;5029713;28;20017;-55
2023/01/07 12:41:39;;;;;;;6.30;2.75;;;;;;;;;;5022203;28;20033;-56
2023/01/07 12:44:20;;;;;;;7.15;2.90;;;;;;;;;;5018306;28;20099;-55
2023/01/07 12:47:08;;;;;;;8.38;2.90;;;;;;;;;;5011010;28;20465;-55
2023/01/07 12:49:54;;;;;;;6.80;2.70;;;;;;;;;;5011080;28;20107;-55
2023/01/07 12:52:31;;;;;;;7.30;2.72;;;;;;;;;;5024794;28;20038;-55
2023/01/07 12:55:02;;;;;;;6.15;2.65;;;;;;;;;;5025727;28;20056;-55
2023/01/07 12:57:29;;;;;;;5.90;2.67;;;;;;;;;;5026794;28;20033;-54
2023/01/07 13:00:07;;;;;;;6.20;2.92;;;;;;;;;;5027504;28;20025;-54
2023/01/07 13:02:37;;;;;;;6.72;2.92;;;;;;;;;;5025930;28;20072;-54
2023/01/07 13:05:05;;;;;;;7.07;2.88;;;;;;;;;;5025595;28;20478;-56
2023/01/07 13:07:39;;;;;;;6.68;2.60;;;;;;;;;;5023539;28;20027;-55
2023/01/07 13:10:13;;;;;;;6.28;2.70;;;;;;;;;;5028968;28;20075;-53
2023/01/07 13:12:42;;;;;;;7.25;2.45;;;;;;;;;;5023101;28;20013;-54
2023/01/07 13:15:26;;;;;;;6.35;2.50;;;;;;;;;;5027367;28;20398;-54
2023/01/07 13:17:54;;;;;;;7.15;2.50;;;;;;;;;;5027844;28;20021;-54
2023/01/07 13:20:42;;;;;;;6.32;2.80;;;;;;;;;;5025411;28;20060;-55
2023/01/07 13:23:12;;;;;;;7.28;2.47;;;;;;;;;;5028616;28;20029;-55
2023/01/07 13:25:44;;;;;;;6.68;2.05;;;;;;;;;;5026264;28;20018;-55
2023/01/07 13:28:35;;;;;;;4.38;1.80;;;;;;;;;;5029129;28;20030;-55
2023/01/07 13:31:18;;;;;;;4.70;1.75;;;;;;;;;;5026857;28;20025;-55
2023/01/07 13:33:43;;;;;;;4.32;1.77;;;;;;;;;;5025334;28;20026;-55
2023/01/07 13:36:22;;;;;;;7.03;1.40;;;;;;;;;;5019283;28;20541;-55
2023/01/07 13:38:50;;;;;;;2.97;1.10;;;;;;;;;;5020194;28;20021;-55
2023/01/07 13:41:21;;;;;;;3.20;1.08;;;;;;;;;;5029152;28;20068;-55
2023/01/07 13:43:56;;;;;;;2.95;0.90;;;;;;;;;;5029484;28;20099;-54
2023/01/07 13:46:24;;;;;;;2.50;0.90;;;;;;;;;;5028922;28;20021;-55
2023/01/07 13:48:50;;;;;;;3.22;1.10;;;;;;;;;;5010194;28;20368;-55
2023/01/07 13:51:23;;;;;;;5.65;1.20;;;;;;;;;;5019446;28;20446;-54
2023/01/07 13:53:48;;;;;;;2.40;0.82;;;;;;;;;;5032811;28;20025;-54
2023/01/07 13:56:16;;;;;;;2.58;1.00;;;;;;;;;;5033581;28;20109;-55
2023/01/07 13:58:52;;;;;;;2.95;1.00;;;;;;;;;;5030307;28;20030;-55
2023/01/07 14:01:24;;;;;;;3.22;1.40;;;;;;;;;;5014146;28;20383;-55
2023/01/07 14:03:49;;;;;;;2.92;1.20;;;;;;;;;;5015852;28;20029;-54
2023/01/07 14:06:17;;;;;;;2.53;1.10;;;;;;;;;;5048077;28;20032;-55
2023/01/07 14:08:43;;;;;;;3.55;1.13;;;;;;;;;;5053735;28;20028;-55
2023/01/07 14:11:08;;;;;;;3.13;1.15;;;;;;;;;;5035873;28;20017;-54
2023/01/07 14:13:52;;;;;;;2.73;1.10;;;;;;;;;;5041065;28;20032;-56
2023/01/07 14:16:22;;;;;;;3.33;1.00;;;;;;;;;;5033684;28;20436;-55
2023/01/07 14:19:22;;;;;;;2.60;0.82;;;;;;;;;;5033434;28;20117;-55
2023/01/07 14:21:51;;;;;;;2.38;0.82;;;;;;;;;;4952587;29;20019;-54
2023/01/07 14:24:31;;;;;;;2.90;0.98;;;;;;;;;;5017352;28;20136;-54
2023/01/07 14:27:05;;;;;;;3.20;1.10;;;;;;;;;;5043906;28;20114;-55
2023/01/07 14:29:39;;;;;;;3.42;0.90;;;;;;;;;;5036047;28;20025;-56
2023/01/07 14:32:10;;;;;;;3.05;0.90;;;;;;;;;;5034416;28;20231;-55
2023/01/07 14:34:36;;;;;;;3.72;0.98;;;;;;;;;;5035045;28;20017;-54
2023/01/07 14:37:01;;;;;;;4.60;0.90;;;;;;;;;;5034134;28;20096;-54
2023/01/07 14:39:30;;;;;;;4.27;0.90;;;;;;;;;;5035327;28;20056;-55
2023/01/07 14:42:13;;;;;;;2.88;0.90;;;;;;;;;;5037283;28;20096;-54
2023/01/07 14:44:39;;;;;;;2.78;0.93;;;;;;;;;;5035077;28;20037;-55
2023/01/07 14:47:09;;;;;;;3.13;0.90;;;;;;;;;;5051907;28;20625;-55
2023/01/07 14:49:53;;;;;;;3.72;0.95;;;;;;;;;;5053013;28;20024;-54
2023/01/07 14:52:28;;;;;;;5.50;1.20;;;;;;;;;;5043194;28;20032;-55
2023/01/07 14:55:02;;;;;;;6.47;1.30;;;;;;;;;;5029732;28;20328;-55